SondeTracker

Meteorological Radiosondes Database

Operations

Sounding was ended - last measurement: 2022-12-05 23:48:05z

MAP
About Radiosonde

Number: D22041461

Launch Site: Shreveport [LA] (US)

Type: DFM17

AUX: NO

Frequency: 403.010 MHz

Max Speed: 161 km/h at 13527 m

Average Speed: 101.27 km/h

Max Altitude: 14409 m

Average Ascent Speed: 5.29 m/s

Average Descent Speed: 0.00 m/s

Status: UNKNOWN

Status Changes
Launch Site Type AUX Frequency Status Finder Landing Point Description Changes made by
APRS Statistics

Received Frames: 85

First Frame [UTC]: 2022-12-05 23:03:02z

Last Frame [UTC]: 2022-12-05 23:48:05z

Receivers: KF5TYU-7

Flight Time: 00:45:03 h

Distance From First Measurement: 75.19 km

Nearest City: Minden [LA] (US) [27.08 km]

Nearest Hunter: Mark628 [70.77 km]

Ground Altitude: 91 m

Distance from QTH: 0.00 km

APRS Data
Receiver Number Date/Time [UTC] φ λ Course [°] Speed [km/h] Altitude [m] Description
KF5TYU-7D220414612022-12-05 23:48:0532.4774-93.04089712014409Clb=6.5m/s t=-67.6C h=-1.0% p=-1.0hPa 403.010 MHz Type=DFM17 Radiosonde
KF5TYU-7D220414612022-12-05 23:47:3332.4787-93.049310213114290Clb=5.5m/s t=-67.8C h=-1.0% p=-1.0hPa 403.010 MHz Type=DFM17 Radiosonde
KF5TYU-7D220414612022-12-05 23:46:1532.4815-93.10588815913641Clb=4.5m/s t=-66.4C h=-1.0% p=-1.0hPa 403.010 MHz Type=DFM17 Radiosonde
KF5TYU-7D220414612022-12-05 23:45:2632.4807-93.11668416113527Clb=5.4m/s t=-65.6C h=-1.0% p=-1.0hPa 403.010 MHz Type=DFM17 Radiosonde
KF5TYU-7D220414612022-12-05 23:44:3832.4796-93.13048815713375Clb=5.4m/s t=-64.6C h=-1.0% p=-1.0hPa 403.010 MHz Type=DFM17 Radiosonde
KF5TYU-7D220414612022-12-05 23:43:5632.4786-93.14388314113215Clb=6.1m/s t=-63.6C h=-1.0% p=-1.0hPa 403.010 MHz Type=DFM17 Radiosonde
KF5TYU-7D220414612022-12-05 23:43:2532.4776-93.1568414413064Clb=4.4m/s t=-62.5C h=-1.0% p=-1.0hPa 403.010 MHz Type=DFM17 Radiosonde
KF5TYU-7D220414612022-12-05 23:42:5332.4766-93.16918414312904Clb=6.4m/s t=-18.0C h=-1.0% p=-1.0hPa 403.010 MHz Type=DFM17 Radiosonde
KF5TYU-7D220414612022-12-05 23:42:2832.4756-93.18228414312744Clb=6.3m/s t=-59.8C h=-1.0% p=-1.0hPa 403.010 MHz Type=DFM17 Radiosonde
KF5TYU-7D220414612022-12-05 23:42:2732.4751-93.19459113512600Clb=3.9m/s t=-58.6C h=-1.0% p=-1.0hPa 403.010 MHz Type=DFM17 Radiosonde
KF5TYU-7D220414612022-12-05 23:41:5632.4749-93.20699013112458Clb=5.3m/s t=-57.8C h=-1.0% p=-1.0hPa 403.010 MHz Type=DFM17 Radiosonde
KF5TYU-7D220414612022-12-05 23:41:1032.4758-93.22049913112307Clb=5.4m/s t=-57.2C h=-1.0% p=-1.0hPa 403.010 MHz Type=DFM17 Radiosonde
KF5TYU-7D220414612022-12-05 23:40:2432.477-93.23189614412183Clb=4.5m/s t=-56.5C h=-1.0% p=-1.0hPa 403.010 MHz Type=DFM17 Radiosonde
KF5TYU-7D220414612022-12-05 23:39:4732.4786-93.24499014312025Clb=8.1m/s t=-55.1C h=-1.0% p=-1.0hPa 403.010 MHz Type=DFM17 Radiosonde
KF5TYU-7D220414612022-12-05 23:39:1732.4792-93.25728913511881Clb=5.7m/s t=-54.2C h=-1.0% p=-1.0hPa 403.010 MHz Type=DFM17 Radiosonde
KF5TYU-7D220414612022-12-05 23:38:4532.4796-93.26969614111744Clb=4.4m/s t=-53.3C h=-1.0% p=-1.0hPa 403.010 MHz Type=DFM17 Radiosonde
KF5TYU-7D220414612022-12-05 23:38:1532.4805-93.28199713111602Clb=4.0m/s t=-52.2C h=-1.0% p=-1.0hPa 403.010 MHz Type=DFM17 Radiosonde
KF5TYU-7D220414612022-12-05 23:37:5832.4812-93.29419513311460Clb=4.6m/s t=-51.1C h=-1.0% p=-1.0hPa 403.010 MHz Type=DFM17 Radiosonde
KF5TYU-7D220414612022-12-05 23:37:4532.482-93.30639413711310Clb=5.5m/s t=-49.8C h=-1.0% p=-1.0hPa 403.010 MHz Type=DFM17 Radiosonde
KF5TYU-7D220414612022-12-05 23:36:5832.4827-93.31869513711165Clb=3.4m/s t=-48.6C h=-1.0% p=-1.0hPa 403.010 MHz Type=DFM17 Radiosonde
KF5TYU-7D220414612022-12-05 23:36:1232.4835-93.33119112811006Clb=5.9m/s t=-47.3C h=-1.0% p=-1.0hPa 403.010 MHz Type=DFM17 Radiosonde
KF5TYU-7D220414612022-12-05 23:35:3832.4837-93.34339313910859Clb=5.5m/s t=-46.4C h=-1.0% p=-1.0hPa 403.010 MHz Type=DFM17 Radiosonde
KF5TYU-7D220414612022-12-05 23:35:0832.4839-93.35599013910707Clb=4.4m/s t=-45.5C h=-1.0% p=-1.0hPa 403.010 MHz Type=DFM17 Radiosonde
KF5TYU-7D220414612022-12-05 23:34:3632.4837-93.36798613310561Clb=4.1m/s t=-44.4C h=-1.0% p=-1.0hPa 403.010 MHz Type=DFM17 Radiosonde
KF5TYU-7D220414612022-12-05 23:34:0532.4833-93.38048314110408Clb=4.3m/s t=-43.4C h=-1.0% p=-1.0hPa 403.010 MHz Type=DFM17 Radiosonde
KF5TYU-7D220414612022-12-05 23:33:3732.4823-93.39358914410246Clb=4.7m/s t=-42.2C h=-1.0% p=-1.0hPa 403.010 MHz Type=DFM17 Radiosonde
KF5TYU-7D220414612022-12-05 23:33:2432.4815-93.40648113710096Clb=4.3m/s t=-41.0C h=-1.0% p=-1.0hPa 403.010 MHz Type=DFM17 Radiosonde
KF5TYU-7D220414612022-12-05 23:32:4232.4806-93.4194821379951Clb=4.7m/s t=-40.0C h=-1.0% p=-1.0hPa 403.010 MHz Type=DFM17 Radiosonde
KF5TYU-7D220414612022-12-05 23:32:0132.4801-93.4326891379804Clb=3.9m/s t=-38.8C h=-1.0% p=-1.0hPa 403.010 MHz Type=DFM17 Radiosonde
KF5TYU-7D220414612022-12-05 23:31:3032.4796-93.4462861469657Clb=3.3m/s t=-37.6C h=-1.0% p=-1.0hPa 403.010 MHz Type=DFM17 Radiosonde
KF5TYU-7D220414612022-12-05 23:30:5932.4795-93.4602951309498Clb=3.0m/s t=-36.4C h=-1.0% p=-1.0hPa 403.010 MHz Type=DFM17 Radiosonde
KF5TYU-7D220414612022-12-05 23:30:2832.4796-93.4733931359332Clb=7.8m/s t=-34.9C h=-1.0% p=-1.0hPa 403.010 MHz Type=DFM17 Radiosonde
KF5TYU-7D220414612022-12-05 23:29:5732.4799-93.4872921359181Clb=4.0m/s t=-34.1C h=-1.0% p=-1.0hPa 403.010 MHz Type=DFM17 Radiosonde
KF5TYU-7D220414612022-12-05 23:29:2632.4806-93.4997991159021Clb=4.5m/s t=-35.0C h=-1.0% p=-1.0hPa 403.010 MHz Type=DFM17 Radiosonde
KF5TYU-7D220414612022-12-05 23:29:0632.4818-93.5115951308854Clb=6.9m/s t=-33.9C h=-1.0% p=-1.0hPa 403.010 MHz Type=DFM17 Radiosonde
KF5TYU-7D220414612022-12-05 23:28:2932.4835-93.52311041138701Clb=4.9m/s t=-33.0C h=-1.0% p=-1.0hPa 403.010 MHz Type=DFM17 Radiosonde
KF5TYU-7D220414612022-12-05 23:27:5232.4852-93.5341071028498Clb=5.9m/s t=-31.4C h=-1.0% p=-1.0hPa 403.010 MHz Type=DFM17 Radiosonde
KF5TYU-7D220414612022-12-05 23:27:2132.4862-93.544851198316Clb=7.9m/s t=-29.9C h=-1.0% p=-1.0hPa 403.010 MHz Type=DFM17 Radiosonde
KF5TYU-7D220414612022-12-05 23:26:5032.4867-93.553184968109Clb=5.4m/s t=-28.0C h=-1.0% p=-1.0hPa 403.010 MHz Type=DFM17 Radiosonde
KF5TYU-7D220414612022-12-05 23:26:1932.487-93.562182947893Clb=5.9m/s t=-26.1C h=-1.0% p=-1.0hPa 403.010 MHz Type=DFM17 Radiosonde
KF5TYU-7D220414612022-12-05 23:25:4832.487-93.57911007713Clb=5.1m/s t=-24.7C h=-1.0% p=-1.0hPa 403.010 MHz Type=DFM17 Radiosonde
KF5TYU-7D220414612022-12-05 23:25:1732.487-93.57897917543Clb=5.5m/s t=-23.2C h=-1.0% p=-1.0hPa 403.010 MHz Type=DFM17 Radiosonde
KF5TYU-7D220414612022-12-05 23:24:5432.487-93.586390967351Clb=7.0m/s t=-21.5C h=-1.0% p=-1.0hPa 403.010 MHz Type=DFM17 Radiosonde
KF5TYU-7D220414612022-12-05 23:24:1832.487-93.5944941067178Clb=4.2m/s t=-20.3C h=-1.0% p=-1.0hPa 403.010 MHz Type=DFM17 Radiosonde
KF5TYU-7D220414612022-12-05 23:23:4432.4872-93.602390807002Clb=4.3m/s t=-19.0C h=-1.0% p=-1.0hPa 403.010 MHz Type=DFM17 Radiosonde
KF5TYU-7D220414612022-12-05 23:23:1332.4881-93.6103101786855Clb=6.0m/s t=-17.9C h=-1.0% p=-1.0hPa 403.010 MHz Type=DFM17 Radiosonde
KF5TYU-7D220414612022-12-05 23:22:4232.4888-93.617987786688Clb=3.5m/s t=-16.9C h=-1.0% p=-1.0hPa 403.010 MHz Type=DFM17 Radiosonde
KF5TYU-7D220414612022-12-05 23:22:1132.4897-93.625585876514Clb=4.4m/s t=-15.7C h=-1.0% p=-1.0hPa 403.010 MHz Type=DFM17 Radiosonde
KF5TYU-7D220414612022-12-05 23:21:4032.4902-93.632399706340Clb=6.3m/s t=-15.1C h=-1.0% p=-1.0hPa 403.010 MHz Type=DFM17 Radiosonde
KF5TYU-7D220414612022-12-05 23:21:0932.4907-93.638892786178Clb=7.7m/s t=-13.9C h=-1.0% p=-1.0hPa 403.010 MHz Type=DFM17 Radiosonde
KF5TYU-7D220414612022-12-05 23:20:3932.4907-93.645799706009Clb=5.2m/s t=-13.3C h=-1.0% p=-1.0hPa 403.010 MHz Type=DFM17 Radiosonde
KF5TYU-7D220414612022-12-05 23:20:0732.4909-93.653679725848Clb=6.5m/s t=-12.4C h=-1.0% p=-1.0hPa 403.010 MHz Type=DFM17 Radiosonde
KF5TYU-7D220414612022-12-05 23:19:3632.4912-93.66195965699Clb=3.4m/s t=-11.4C h=-1.0% p=-1.0hPa 403.010 MHz Type=DFM17 Radiosonde
KF5TYU-7D220414612022-12-05 23:19:0532.4915-93.669497835521Clb=7.3m/s t=-10.2C h=-1.0% p=-1.0hPa 403.010 MHz Type=DFM17 Radiosonde
KF5TYU-7D220414612022-12-05 23:18:3432.4916-93.676599635348Clb=4.2m/s t=-9.0C h=-1.0% p=-1.0hPa 403.010 MHz Type=DFM17 Radiosonde
KF5TYU-7D220414612022-12-05 23:18:0232.4915-93.683392705180Clb=5.5m/s t=-7.5C h=-1.0% p=-1.0hPa 403.010 MHz Type=DFM17 Radiosonde
KF5TYU-7D220414612022-12-05 23:17:3132.491-93.690590835015Clb=5.4m/s t=-6.2C h=-1.0% p=-1.0hPa 403.010 MHz Type=DFM17 Radiosonde
KF5TYU-7D220414612022-12-05 23:17:0032.4907-93.696893574839Clb=8.5m/s t=-5.2C h=-1.0% p=-1.0hPa 403.010 MHz Type=DFM17 Radiosonde
KF5TYU-7D220414612022-12-05 23:16:2932.4904-93.702983544653Clb=4.5m/s t=-3.7C h=-1.0% p=-1.0hPa 403.010 MHz Type=DFM17 Radiosonde
KF5TYU-7D220414612022-12-05 23:15:5832.4906-93.708489674474Clb=5.2m/s t=-2.2C h=-1.0% p=-1.0hPa 403.010 MHz Type=DFM17 Radiosonde
KF5TYU-7D220414612022-12-05 23:15:2732.4909-93.714887724297Clb=5.8m/s t=-1.3C h=-1.0% p=-1.0hPa 403.010 MHz Type=DFM17 Radiosonde
KF5TYU-7D220414612022-12-05 23:14:5632.4919-93.7214110804118Clb=5.2m/s t=-0.5C h=-1.0% p=-1.0hPa 403.010 MHz Type=DFM17 Radiosonde
KF5TYU-7D220414612022-12-05 23:14:2532.4927-93.728393853930Clb=6.4m/s t=0.3C h=-1.0% p=-1.0hPa 403.010 MHz Type=DFM17 Radiosonde
KF5TYU-7D220414612022-12-05 23:13:5432.4933-93.735687703731Clb=4.7m/s t=1.6C h=-1.0% p=-1.0hPa 403.010 MHz Type=DFM17 Radiosonde
KF5TYU-7D220414612022-12-05 23:13:2332.4936-93.74280803561Clb=5.3m/s t=2.7C h=-1.0% p=-1.0hPa 403.010 MHz Type=DFM17 Radiosonde
KF5TYU-7D220414612022-12-05 23:12:5232.4935-93.749386563384Clb=5.1m/s t=4.1C h=-1.0% p=-1.0hPa 403.010 MHz Type=DFM17 Radiosonde
KF5TYU-7D220414612022-12-05 23:12:2132.4932-93.755797763214Clb=4.1m/s t=5.6C h=-1.0% p=-1.0hPa 403.010 MHz Type=DFM17 Radiosonde
KF5TYU-7D220414612022-12-05 23:11:5032.4926-93.762277593041Clb=5.4m/s t=7.3C h=-1.0% p=-1.0hPa 403.010 MHz Type=DFM17 Radiosonde
KF5TYU-7D220414612022-12-05 23:11:1932.4926-93.768476722858Clb=4.0m/s t=8.6C h=-1.0% p=-1.0hPa 403.010 MHz Type=DFM17 Radiosonde
KF5TYU-7D220414612022-12-05 23:10:4832.4923-93.77597722682Clb=5.3m/s t=10.1C h=-1.0% p=-1.0hPa 403.010 MHz Type=DFM17 Radiosonde
KF5TYU-7D220414612022-12-05 23:10:1732.4919-93.781386742507Clb=4.6m/s t=11.6C h=-1.0% p=-1.0hPa 403.010 MHz Type=DFM17 Radiosonde
KF5TYU-7D220414612022-12-05 23:09:4532.4911-93.787171482330Clb=6.3m/s t=12.2C h=-1.0% p=-1.0hPa 403.010 MHz Type=DFM17 Radiosonde
KF5TYU-7D220414612022-12-05 23:09:1432.4896-93.792671702152Clb=8.6m/s t=13.4C h=-1.0% p=-1.0hPa 403.010 MHz Type=DFM17 Radiosonde
KF5TYU-7D220414612022-12-05 23:08:4332.4882-93.797857631979Clb=5.0m/s t=14.4C h=-1.0% p=-1.0hPa 403.010 MHz Type=DFM17 Radiosonde
KF5TYU-7D220414612022-12-05 23:08:1232.4867-93.80366721815Clb=4.6m/s t=16.0C h=-1.0% p=-1.0hPa 403.010 MHz Type=DFM17 Radiosonde
KF5TYU-7D220414612022-12-05 23:07:4132.4848-93.808156701638Clb=7.0m/s t=15.1C h=-1.0% p=-1.0hPa 403.010 MHz Type=DFM17 Radiosonde
KF5TYU-7D220414612022-12-05 23:07:1032.482-93.813258801469Clb=4.0m/s t=13.0C h=-1.0% p=-1.0hPa 403.010 MHz Type=DFM17 Radiosonde
KF5TYU-7D220414612022-12-05 23:06:3932.4781-93.818554801319Clb=4.6m/s t=14.1C h=-1.0% p=-1.0hPa 403.010 MHz Type=DFM17 Radiosonde
KF5TYU-7D220414612022-12-05 23:06:0832.4742-93.823656801153Clb=4.9m/s t=15.5C h=-1.0% p=-1.0hPa 403.010 MHz Type=DFM17 Radiosonde
KF5TYU-7D220414612022-12-05 23:05:3732.4702-93.82875063987Clb=5.8m/s t=16.3C h=-1.0% p=-1.0hPa 403.010 MHz Type=DFM17 Radiosonde
KF5TYU-7D220414612022-12-05 23:05:0632.466-93.83293981801Clb=5.1m/s t=17.2C h=-1.0% p=-1.0hPa 403.010 MHz Type=DFM17 Radiosonde
KF5TYU-7D220414612022-12-05 23:04:3532.4621-93.8363444632Clb=4.2m/s t=18.7C h=-1.0% p=-1.0hPa 403.010 MHz Type=DFM17 Radiosonde
KF5TYU-7D220414612022-12-05 23:04:0432.4581-93.83893659465Clb=6.5m/s t=20.2C h=-1.0% p=-1.0hPa 403.010 MHz Type=DFM17 Radiosonde
KF5TYU-7D220414612022-12-05 23:03:3332.4552-93.84061943313Clb=6.5m/s t=21.4C h=-1.0% p=-1.0hPa 403.010 MHz Type=DFM17 Radiosonde
KF5TYU-7D220414612022-12-05 23:03:0232.4525-93.841734733123Clb=6.6m/s t=22.9C h=-1.0% p=-1.0hPa 403.010 MHz Type=DFM17 Radiosonde